Time;durP1;ratioP1;P1;durP2;ratioP2;P2;SDS_P1;SDS_P2;PMS_P1;PMS_P2;Temp;Humidity;BMP_temperature;BMP_pressure;BME280_temperature;BME280_humidity;BME280_pressure;Samples;Min_cycle;Max_cycle;Signal;HPM_P1;HPM_P2
2023/12/02 00:02:21;;;;;;;31.90;21.30;;;;;;;0.89;75.15;98557.89;107003;1256;66376;-41
2023/12/02 00:04:48;;;;;;;33.50;22.90;;;;;;;0.92;75.33;98557.02;107030;1258;72082;-41
2023/12/02 00:07:17;;;;;;;33.90;22.90;;;;;;;0.90;75.38;98557.11;107005;1259;59647;-41
2023/12/02 00:09:44;;;;;;;34.00;22.50;;;;;;;0.93;75.13;98563.34;107030;1256;60036;-41
2023/12/02 00:12:12;;;;;;;35.00;23.50;;;;;;;0.91;75.33;98572.02;107045;1262;72633;-41
2023/12/02 00:14:40;;;;;;;42.30;25.50;;;;;;;0.85;75.33;98576.50;107016;1257;67572;-41
2023/12/02 00:17:07;;;;;;;35.80;23.40;;;;;;;0.88;75.11;98576.23;107032;1256;71398;-40
2023/12/02 00:19:34;;;;;;;36.20;23.50;;;;;;;0.94;75.09;98574.11;107005;1262;59257;-40
2023/12/02 00:22:04;;;;;;;35.70;24.20;;;;;;;0.94;75.09;98572.51;107009;1257;60308;-41
2023/12/02 00:24:32;;;;;;;40.30;25.10;;;;;;;0.91;75.31;98575.45;107030;1258;74318;-41
2023/12/02 00:27:00;;;;;;;39.30;24.80;;;;;;;0.91;75.09;98575.19;107010;1256;67874;-41
2023/12/02 00:29:28;;;;;;;37.70;24.90;;;;;;;0.91;75.57;98574.42;107020;1259;71272;-41
2023/12/02 00:31:55;;;;;;;39.00;25.50;;;;;;;0.85;75.41;98566.09;107015;1259;60457;-41
2023/12/02 00:34:23;;;;;;;42.20;25.60;;;;;;;0.81;75.54;98571.42;107027;1262;60470;-40
2023/12/02 00:36:51;;;;;;;39.10;25.70;;;;;;;0.77;75.74;98570.95;107022;1257;73892;-41
2023/12/02 00:39:18;;;;;;;35.60;24.00;;;;;;;0.84;75.80;98572.24;106975;1260;67586;-41
2023/12/02 00:41:46;;;;;;;39.60;24.50;;;;;;;0.97;75.79;98565.47;106942;1256;72769;-40
2023/12/02 00:44:13;;;;;;;37.50;24.20;;;;;;;1.04;75.71;98564.06;106974;1256;60458;-40
2023/12/02 00:46:41;;;;;;;42.30;26.90;;;;;;;1.04;75.63;98564.02;107005;1256;60436;-38
2023/12/02 00:49:09;;;;;;;39.90;26.20;;;;;;;0.98;75.30;98565.55;107002;1256;73854;-40
2023/12/02 00:51:37;;;;;;;44.30;28.50;;;;;;;0.91;75.56;98567.06;106962;1262;67595;-40
2023/12/02 00:54:04;;;;;;;39.80;27.50;;;;;;;0.86;75.83;98571.05;107031;1259;71436;-40
2023/12/02 00:56:33;;;;;;;40.80;26.60;;;;;;;0.85;75.70;98567.06;107020;1259;60535;-40
2023/12/02 00:59:00;;;;;;;44.50;26.70;;;;;;;0.86;75.64;98560.31;107051;1256;60399;-40
2023/12/02 01:01:28;;;;;;;39.30;25.40;;;;;;;0.95;75.33;98561.59;107016;1256;72599;-39
2023/12/02 01:03:55;;;;;;;37.40;25.30;;;;;;;1.03;75.22;98567.36;107051;1258;66674;-40
2023/12/02 01:06:23;;;;;;;37.60;25.90;;;;;;;1.04;75.23;98577.64;107022;1260;73110;-40
2023/12/02 01:08:51;;;;;;;43.00;27.30;;;;;;;1.03;75.55;98584.34;107008;1262;60579;-40
2023/12/02 01:11:20;;;;;;;38.70;25.20;;;;;;;1.06;76.03;98570.00;107034;1257;60334;-39
2023/12/02 01:13:48;;;;;;;39.40;26.20;;;;;;;1.09;75.79;98565.88;107022;1257;72939;-40
2023/12/02 01:16:15;;;;;;;42.40;26.60;;;;;;;1.14;75.55;98565.88;107000;1262;68431;-40
2023/12/02 01:18:42;;;;;;;40.60;26.40;;;;;;;1.16;75.36;98559.38;106969;1262;71687;-40
2023/12/02 01:21:10;;;;;;;42.90;26.60;;;;;;;1.17;75.25;98554.14;106981;1262;60937;-40
2023/12/02 01:23:38;;;;;;;37.70;25.60;;;;;;;1.25;74.88;98546.14;106961;1256;60402;-40
2023/12/02 01:26:06;;;;;;;36.60;24.90;;;;;;;1.34;74.85;98544.03;106994;1257;73804;-40
2023/12/02 01:28:34;;;;;;;39.10;26.10;;;;;;;1.36;74.81;98548.13;106993;1257;66449;-39
2023/12/02 01:31:01;;;;;;;43.10;26.30;;;;;;;1.37;74.78;98550.08;107005;1261;72739;-40
2023/12/02 01:33:29;;;;;;;41.30;26.50;;;;;;;1.40;74.65;98553.57;106997;1259;61122;-39
2023/12/02 01:35:56;;;;;;;40.40;26.00;;;;;;;1.41;74.49;98559.88;107021;1257;60570;-40
2023/12/02 01:38:24;;;;;;;39.20;25.80;;;;;;;1.41;74.43;98558.95;107101;1256;73249;-40
2023/12/02 01:40:51;;;;;;;39.80;26.00;;;;;;;1.41;74.54;98557.95;107077;1257;66316;-40
2023/12/02 01:43:24;;;;;;;42.80;26.90;;;;;;;1.39;74.23;98561.42;107025;1259;72671;-39
2023/12/02 01:45:52;;;;;;;39.80;25.50;;;;;;;1.40;74.30;98562.36;107171;1261;60787;-39
2023/12/02 01:48:20;;;;;;;37.50;25.00;;;;;;;1.49;74.08;98558.06;106995;1258;60267;-40
2023/12/02 01:50:48;;;;;;;37.00;24.80;;;;;;;1.56;73.88;98544.27;107068;1262;73862;-40
2023/12/02 01:53:15;;;;;;;38.30;25.90;;;;;;;1.56;73.79;98542.95;107094;1258;67342;-40
2023/12/02 01:55:44;;;;;;;39.10;25.70;;;;;;;1.55;73.87;98550.69;107133;1261;72788;-40
2023/12/02 01:58:12;;;;;;;37.30;25.60;;;;;;;1.55;73.67;98550.02;107038;1259;60339;-40
2023/12/02 02:00:39;;;;;;;42.10;27.70;;;;;;;1.52;73.32;98549.50;107009;1262;60451;-40
2023/12/02 02:03:07;;;;;;;43.90;25.70;;;;;;;1.48;73.56;98560.02;107034;1262;72929;-40
2023/12/02 02:05:35;;;;;;;39.30;26.70;;;;;;;1.45;73.51;98560.02;107068;1262;67784;-40
2023/12/02 02:08:02;;;;;;;37.20;25.20;;;;;;;1.42;73.72;98557.71;107046;1258;72708;-40
2023/12/02 02:10:30;;;;;;;41.00;25.30;;;;;;;1.39;73.59;98553.55;107012;1262;59574;-40
2023/12/02 02:12:58;;;;;;;34.20;23.80;;;;;;;1.46;73.47;98546.67;107003;1257;60323;-39
2023/12/02 02:15:25;;;;;;;38.90;24.80;;;;;;;1.54;73.39;98549.89;107094;1258;72815;-40
2023/12/02 02:17:53;;;;;;;37.50;24.80;;;;;;;1.56;73.73;98550.34;107113;1261;67896;-40
2023/12/02 02:20:20;;;;;;;37.30;24.90;;;;;;;1.57;73.50;98550.30;107134;1257;72550;-40
2023/12/02 02:22:48;;;;;;;39.10;25.90;;;;;;;1.54;73.33;98551.52;107133;1259;60285;-39
2023/12/02 02:25:16;;;;;;;38.60;26.30;;;;;;;1.52;73.18;98554.09;104926;1258;1003586;-38
2023/12/02 02:27:43;;;;;;;38.80;26.00;;;;;;;1.50;73.51;98554.46;107005;1257;73196;-39
2023/12/02 02:30:11;;;;;;;38.70;24.90;;;;;;;1.46;73.32;98552.70;107057;1257;66632;-39
2023/12/02 02:32:39;;;;;;;39.80;25.50;;;;;;;1.39;73.34;98547.60;107170;1262;72722;-39
2023/12/02 02:35:07;;;;;;;37.50;23.70;;;;;;;1.32;73.11;98542.49;107039;1257;61076;-39
2023/12/02 02:37:35;;;;;;;38.30;23.60;;;;;;;1.35;73.31;98545.05;107213;1258;60359;-39
2023/12/02 02:40:03;;;;;;;35.60;23.50;;;;;;;1.47;73.54;98551.35;107065;1257;71577;-38
2023/12/02 02:42:30;;;;;;;33.40;23.30;;;;;;;1.50;73.49;98552.78;107162;1258;66619;-38
2023/12/02 02:44:58;;;;;;;36.60;25.00;;;;;;;1.53;73.47;98548.34;107086;1262;72770;-38
2023/12/02 02:47:25;;;;;;;38.00;24.30;;;;;;;1.55;73.28;98549.11;107245;1257;60556;-39
2023/12/02 02:49:53;;;;;;;39.90;25.20;;;;;;;1.55;73.25;98549.48;107038;1262;60341;-39
2023/12/02 02:52:22;;;;;;;37.60;25.00;;;;;;;1.53;73.18;98554.54;107023;1258;73856;-39
2023/12/02 02:54:49;;;;;;;38.50;25.60;;;;;;;1.49;72.95;98549.60;107121;1262;67963;-39
2023/12/02 02:57:20;;;;;;;36.90;25.00;;;;;;;1.42;73.07;98556.41;106308;1258;1003651;-39
2023/12/02 02:59:47;;;;;;;37.80;23.80;;;;;;;1.38;73.17;98566.48;107055;1262;60849;-38
2023/12/02 03:02:15;;;;;;;36.80;24.20;;;;;;;1.47;73.05;98567.58;107067;1257;60502;-38
2023/12/02 03:04:43;;;;;;;33.50;22.70;;;;;;;1.58;72.97;98570.45;107043;1263;72523;-38
2023/12/02 03:07:10;;;;;;;34.20;23.30;;;;;;;1.62;73.29;98573.89;107080;1258;67596;-39
2023/12/02 03:09:38;;;;;;;35.50;24.20;;;;;;;1.63;73.08;98565.09;107057;1264;72700;-39
2023/12/02 03:12:05;;;;;;;34.90;23.70;;;;;;;1.63;73.04;98560.57;107025;1262;60344;-39
2023/12/02 03:14:33;;;;;;;34.40;23.40;;;;;;;1.62;73.00;98558.52;107055;1258;60463;-39
2023/12/02 03:17:01;;;;;;;36.20;24.30;;;;;;;1.57;72.78;98554.66;107047;1257;72409;-39
2023/12/02 03:19:28;;;;;;;37.40;25.50;;;;;;;1.51;72.75;98553.06;107065;1262;66772;-39
2023/12/02 03:21:56;;;;;;;36.30;24.10;;;;;;;1.44;72.88;98555.94;107055;1263;72733;-39
2023/12/02 03:24:23;;;;;;;37.60;24.40;;;;;;;1.34;73.01;98559.14;107071;1257;60213;-38
2023/12/02 03:26:51;;;;;;;34.50;21.90;;;;;;;1.37;73.25;98569.69;107045;1261;60444;-38
2023/12/02 03:29:18;;;;;;;33.70;22.70;;;;;;;1.45;73.17;98567.70;107078;1262;72713;-38
2023/12/02 03:31:46;;;;;;;36.70;23.70;;;;;;;1.49;73.34;98561.75;107083;1263;67011;-38
2023/12/02 03:34:13;;;;;;;36.90;24.10;;;;;;;1.51;73.60;98570.96;107030;1262;71741;-38
2023/12/02 03:36:41;;;;;;;37.00;23.30;;;;;;;1.52;73.34;98573.82;107065;1262;60441;-38
2023/12/02 03:39:12;;;;;;;36.50;23.80;;;;;;;1.51;73.31;98576.99;107085;1257;60502;-39
2023/12/02 03:41:40;;;;;;;38.40;24.60;;;;;;;1.51;73.58;98579.51;107092;1257;73873;-39
2023/12/02 03:44:08;;;;;;;33.40;23.30;;;;;;;1.50;73.54;98581.38;107063;1258;67573;-39
2023/12/02 03:46:36;;;;;;;34.30;22.90;;;;;;;1.48;73.53;98576.67;107105;1260;72676;-39
2023/12/02 03:49:04;;;;;;;35.00;23.10;;;;;;;1.48;73.68;98576.48;107067;1258;59949;-39
2023/12/02 03:51:31;;;;;;;36.30;22.60;;;;;;;1.53;73.48;98574.36;107079;1262;60307;-39
2023/12/02 03:53:59;;;;;;;35.50;23.60;;;;;;;1.61;73.23;98581.15;107038;1262;73877;-39
2023/12/02 03:56:26;;;;;;;36.30;23.50;;;;;;;1.60;73.27;98578.67;107077;1258;67906;-39
2023/12/02 03:58:55;;;;;;;36.70;23.20;;;;;;;1.52;73.06;98572.33;107040;1258;72687;-39
2023/12/02 04:01:22;;;;;;;38.00;24.70;;;;;;;1.44;73.48;98576.21;107068;1262;60560;-39
2023/12/02 04:03:50;;;;;;;37.20;24.30;;;;;;;1.38;73.63;98578.45;107072;1258;60306;-39
2023/12/02 04:06:17;;;;;;;38.30;25.70;;;;;;;1.35;73.92;98581.98;106339;1258;1003394;-39
2023/12/02 04:08:45;;;;;;;38.30;25.10;;;;;;;1.30;73.83;98581.33;107064;1262;66775;-39
2023/12/02 04:11:12;;;;;;;35.90;24.40;;;;;;;1.24;73.57;98572.32;107064;1258;71409;-39
2023/12/02 04:13:40;;;;;;;37.20;25.40;;;;;;;1.34;73.82;98582.39;107053;1262;60437;-39
2023/12/02 04:16:08;;;;;;;39.40;25.60;;;;;;;1.31;74.19;98582.07;107166;1260;61164;-39
2023/12/02 04:18:36;;;;;;;41.10;27.50;;;;;;;1.34;74.48;98583.46;107042;1262;72847;-39
2023/12/02 04:21:06;;;;;;;47.30;31.70;;;;;;;1.35;74.31;98573.66;107098;1262;66442;-39
2023/12/02 04:23:35;;;;;;;52.20;32.50;;;;;;;1.28;74.24;98568.83;107140;1260;71643;-38
2023/12/02 04:26:02;;;;;;;48.50;30.60;;;;;;;1.24;74.15;98565.44;107172;1257;60550;-39
2023/12/02 04:28:30;;;;;;;48.90;30.40;;;;;;;1.20;74.06;98564.52;107096;1257;60985;-38
2023/12/02 04:30:57;;;;;;;45.50;29.00;;;;;;;1.20;74.09;98564.52;107090;1258;73858;-39
2023/12/02 04:33:25;;;;;;;47.30;29.70;;;;;;;1.14;74.23;98568.34;107083;1257;67601;-39
2023/12/02 04:35:53;;;;;;;51.30;32.00;;;;;;;1.07;74.75;98567.70;107080;1258;72332;-39
2023/12/02 04:38:21;;;;;;;47.10;30.10;;;;;;;1.01;74.91;98567.02;107235;1260;60417;-39
2023/12/02 04:40:48;;;;;;;47.60;30.10;;;;;;;0.97;75.31;98574.40;107098;1257;60342;-38
2023/12/02 04:43:16;;;;;;;49.80;30.10;;;;;;;0.96;75.41;98573.15;107071;1258;72639;-39
2023/12/02 04:45:43;;;;;;;43.40;29.30;;;;;;;1.01;75.38;98576.27;107087;1257;67667;-38
2023/12/02 04:48:11;;;;;;;44.00;28.40;;;;;;;1.09;75.14;98582.17;107055;1262;71891;-38
2023/12/02 04:50:40;;;;;;;44.30;28.90;;;;;;;1.07;75.32;98575.71;107065;1263;60443;-39
2023/12/02 04:53:09;;;;;;;46.50;28.50;;;;;;;1.04;75.52;98575.30;107190;1262;60562;-39
2023/12/02 04:55:36;;;;;;;47.00;28.50;;;;;;;1.00;75.70;98578.58;107214;1257;73893;-39
2023/12/02 04:58:04;;;;;;;45.50;28.30;;;;;;;0.97;75.55;98588.67;107110;1263;67581;-39
2023/12/02 05:00:32;;;;;;;41.40;25.60;;;;;;;0.92;75.68;98587.61;107076;1260;71957;-39
2023/12/02 05:03:00;;;;;;;41.60;26.00;;;;;;;0.93;75.56;98587.65;107139;1259;60473;-39
2023/12/02 05:05:28;;;;;;;37.60;24.90;;;;;;;0.93;75.53;98586.52;107127;1257;60324;-39
2023/12/02 05:07:55;;;;;;;42.30;26.60;;;;;;;0.86;75.76;98589.02;107061;1257;73878;-38
2023/12/02 05:10:23;;;;;;;40.50;26.00;;;;;;;0.79;75.89;98593.84;107177;1257;67595;-39
2023/12/02 05:12:51;;;;;;;41.80;26.30;;;;;;;0.73;76.23;98598.73;107207;1257;72683;-39
2023/12/02 05:15:20;;;;;;;38.50;24.90;;;;;;;0.69;76.59;98600.86;107204;1257;60958;-39
2023/12/02 05:17:48;;;;;;;38.50;25.30;;;;;;;0.75;76.56;98600.05;107269;1257;60331;-39
2023/12/02 05:20:15;;;;;;;41.00;25.60;;;;;;;0.82;76.73;98604.19;107202;1257;73878;-39
2023/12/02 05:22:44;;;;;;;44.90;28.00;;;;;;;0.81;76.73;98608.69;107188;1257;67587;-39
2023/12/02 05:25:15;;;;;;;41.60;26.00;;;;;;;0.75;76.98;98597.91;107200;1258;72828;-39
2023/12/02 05:27:43;;;;;;;37.00;23.80;;;;;;;0.69;77.20;98590.09;107195;1257;60440;-39
2023/12/02 05:30:12;;;;;;;36.90;24.10;;;;;;;0.62;77.52;98590.38;107182;1257;60868;-39
2023/12/02 05:32:40;;;;;;;;;;;;;;;0.68;77.63;98589.36;107323;1257;73952;-39
2023/12/02 05:35:10;;;;;;;40.20;25.30;;;;;;;0.70;77.57;98592.63;107195;1260;66944;-39
2023/12/02 05:37:38;;;;;;;40.00;25.70;;;;;;;0.65;77.95;98589.90;107197;1257;72660;-39
2023/12/02 05:40:09;;;;;;;41.50;27.50;;;;;;;0.61;78.14;98598.93;107149;1257;60321;-39
2023/12/02 05:42:36;;;;;;;42.90;26.20;;;;;;;0.58;78.17;98611.70;107251;1257;60556;-38
2023/12/02 05:45:05;;;;;;;49.20;29.00;;;;;;;0.59;78.27;98608.23;107190;1257;73920;-39
2023/12/02 05:47:33;;;;;;;43.90;28.70;;;;;;;0.69;78.14;98600.83;107244;1258;67585;-38
2023/12/02 05:50:01;;;;;;;48.70;30.90;;;;;;;0.73;77.85;98599.35;107209;1257;72677;-39
2023/12/02 05:52:28;;;;;;;49.60;31.40;;;;;;;0.68;77.85;98598.66;107186;1258;60408;-38
2023/12/02 05:54:56;;;;;;;51.20;32.90;;;;;;;0.61;78.14;98592.24;107195;1260;60685;-39
2023/12/02 05:57:23;;;;;;;50.80;30.70;;;;;;;0.55;78.32;98583.75;107235;1257;72634;-39
2023/12/02 05:59:51;;;;;;;47.40;29.60;;;;;;;0.52;78.16;98583.14;107194;1257;67697;-38
2023/12/02 06:02:19;;;;;;;48.40;31.10;;;;;;;0.55;78.42;98584.10;107181;1257;71455;-39
2023/12/02 06:04:46;;;;;;;45.70;30.50;;;;;;;0.53;78.59;98593.48;107153;1256;60533;-38
2023/12/02 06:07:14;;;;;;;51.60;32.10;;;;;;;0.51;78.77;98592.77;107202;1257;60547;-38
2023/12/02 06:09:43;;;;;;;50.30;31.10;;;;;;;0.42;79.09;98578.55;107128;1257;73832;-39
2023/12/02 06:12:10;;;;;;;47.20;29.20;;;;;;;0.49;78.97;98597.10;107114;1257;68031;-39
2023/12/02 06:14:39;;;;;;;43.40;28.20;;;;;;;0.55;78.86;98601.72;107111;1261;72683;-39
2023/12/02 06:17:07;;;;;;;35.10;22.10;;;;;;;0.58;78.67;98592.71;107115;1259;60460;-38
2023/12/02 06:19:34;;;;;;;43.50;28.70;;;;;;;0.54;78.72;98590.25;107134;1257;60454;-39
2023/12/02 06:22:02;;;;;;;47.20;28.20;;;;;;;0.51;78.88;98592.15;107075;1262;74722;-39
2023/12/02 06:24:30;;;;;;;48.80;31.00;;;;;;;0.49;79.18;98586.05;107148;1257;66765;-38
2023/12/02 06:26:58;;;;;;;52.20;33.20;;;;;;;0.53;79.10;98597.14;107089;1258;72734;-39
2023/12/02 06:29:25;;;;;;;49.40;33.20;;;;;;;0.65;78.86;98594.55;106353;1259;1002458;-39
2023/12/02 06:31:53;;;;;;;52.30;34.10;;;;;;;0.67;78.73;98594.20;107070;1262;59582;-39
2023/12/02 06:34:21;;;;;;;55.40;35.10;;;;;;;0.66;78.99;98598.03;107132;1262;73943;-39
2023/12/02 06:36:48;;;;;;;54.10;33.70;;;;;;;0.64;79.02;98596.48;107114;1258;67212;-39
2023/12/02 06:39:16;;;;;;;49.20;30.80;;;;;;;0.62;78.96;98591.98;107104;1258;72707;-39
2023/12/02 06:41:44;;;;;;;48.30;32.10;;;;;;;0.67;78.91;98592.13;107102;1262;60940;-38
2023/12/02 06:44:12;;;;;;;54.80;33.00;;;;;;;0.73;78.94;98590.17;107108;1257;60589;-39
2023/12/02 06:46:39;;;;;;;51.70;32.50;;;;;;;0.68;79.01;98593.41;104837;1257;1003436;-38
2023/12/02 06:49:07;;;;;;;51.70;32.60;;;;;;;0.64;79.14;98594.45;107131;1258;67524;-38
2023/12/02 06:51:35;;;;;;;48.10;31.20;;;;;;;0.59;79.36;98590.77;107082;1257;73105;-38
2023/12/02 06:54:03;;;;;;;55.30;33.50;;;;;;;0.60;79.66;98594.11;107092;1259;60519;-39
2023/12/02 06:56:31;;;;;;;56.70;34.90;;;;;;;0.67;79.54;98580.40;107114;1257;60351;-38
2023/12/02 06:58:58;;;;;;;58.70;36.70;;;;;;;0.76;79.32;98590.89;107117;1257;73913;-39
2023/12/02 07:01:30;;;;;;;61.70;39.50;;;;;;;0.74;79.51;98597.02;107114;1257;67430;-38
2023/12/02 07:03:59;;;;;;;64.90;40.70;;;;;;;0.72;79.75;98592.14;107126;1262;71704;-38
2023/12/02 07:06:27;;;;;;;66.30;42.40;;;;;;;0.72;79.75;98589.72;107162;1258;61045;-38
2023/12/02 07:08:55;;;;;;;66.90;43.30;;;;;;;0.80;79.59;98592.10;106477;1258;1002785;-39
2023/12/02 07:11:22;;;;;;;66.10;40.20;;;;;;;0.86;79.24;98590.95;107137;1258;72618;-38
2023/12/02 07:13:50;;;;;;;63.60;39.50;;;;;;;0.84;79.46;98586.36;107144;1257;67619;-38
2023/12/02 07:16:18;;;;;;;64.20;39.80;;;;;;;0.81;79.56;98584.33;107109;1262;72718;-38
2023/12/02 07:18:46;;;;;;;63.90;37.30;;;;;;;0.75;79.55;98586.48;107087;1260;60921;-38
2023/12/02 07:21:13;;;;;;;58.30;36.50;;;;;;;0.82;79.73;98584.58;107116;1258;60433;-39
2023/12/02 07:23:42;;;;;;;66.60;39.80;;;;;;;0.89;79.66;98578.38;107119;1258;73872;-38
2023/12/02 07:26:10;;;;;;;65.10;40.30;;;;;;;0.85;79.62;98580.77;107110;1257;67593;-39
2023/12/02 07:28:37;;;;;;;67.40;39.90;;;;;;;0.82;79.67;98589.29;106357;1259;1003426;-39
2023/12/02 07:31:06;;;;;;;60.30;37.50;;;;;;;0.78;80.02;98579.30;107096;1257;60930;-39
2023/12/02 07:33:33;;;;;;;62.60;39.00;;;;;;;0.83;79.90;98579.73;107132;1257;60436;-38
2023/12/02 07:36:01;;;;;;;66.10;39.60;;;;;;;0.86;79.78;98580.19;107085;1257;72600;-39
2023/12/02 07:38:29;;;;;;;61.30;38.20;;;;;;;0.81;79.91;98579.89;107102;1257;67891;-39
2023/12/02 07:40:56;;;;;;;60.60;37.40;;;;;;;0.75;80.01;98572.52;107167;1258;72746;-38
2023/12/02 07:43:24;;;;;;;62.60;35.80;;;;;;;0.70;80.29;98563.86;107093;1259;60451;-39
2023/12/02 07:45:51;;;;;;;59.50;35.30;;;;;;;0.76;80.25;98561.67;107112;1257;60386;-39
2023/12/02 07:48:19;;;;;;;58.30;35.40;;;;;;;0.76;80.12;98562.89;107048;1257;73009;-40
2023/12/02 07:50:46;;;;;;;61.20;36.70;;;;;;;0.71;80.46;98560.06;107013;1262;67622;-40
2023/12/02 07:53:14;;;;;;;57.40;34.80;;;;;;;0.66;80.70;98557.27;107058;1258;72713;-40
2023/12/02 07:55:41;;;;;;;56.00;34.10;;;;;;;0.68;80.84;98552.41;107026;1259;60928;-40
2023/12/02 07:58:12;;;;;;;63.30;36.90;;;;;;;0.75;80.61;98548.89;107035;1257;60323;-39
2023/12/02 08:00:40;;;;;;;61.50;36.00;;;;;;;0.73;80.58;98555.59;106992;1257;73835;-40
2023/12/02 08:03:07;;;;;;;63.60;36.80;;;;;;;0.73;80.99;98557.86;107034;1257;67760;-39
2023/12/02 08:05:35;;;;;;;60.10;34.30;;;;;;;0.72;81.00;98558.15;107034;1259;71148;-39
2023/12/02 08:08:05;;;;;;;56.90;32.80;;;;;;;0.77;80.87;98556.61;107037;1257;60617;-40
2023/12/02 08:10:33;;;;;;;55.80;33.30;;;;;;;0.76;80.76;98561.81;107154;1257;60427;-39
2023/12/02 08:13:00;;;;;;;56.30;33.30;;;;;;;0.72;81.24;98564.55;107010;1257;73871;-39
2023/12/02 08:15:28;;;;;;;52.70;30.80;;;;;;;0.70;81.28;98572.14;107093;1257;67643;-40
2023/12/02 08:17:55;;;;;;;49.10;30.20;;;;;;;0.78;81.16;98574.02;107010;1257;71741;-40
2023/12/02 08:20:23;;;;;;;47.40;29.30;;;;;;;0.83;80.93;98577.38;107048;1257;59563;-40
2023/12/02 08:22:51;;;;;;;51.10;30.30;;;;;;;0.79;81.17;98573.19;107050;1257;60466;-40
2023/12/02 08:28:21;;;;;;;47.00;28.60;;;;;;;0.79;81.10;98569.45;104139;1290;600342;-39
2023/12/02 08:30:48;;;;;;;48.70;29.40;;;;;;;0.85;81.02;98576.31;106413;1267;59269;-39
2023/12/02 08:33:16;;;;;;;52.40;29.50;;;;;;;0.84;80.91;98572.64;106534;1267;59238;-38
2023/12/02 08:35:44;;;;;;;54.70;29.70;;;;;;;0.83;80.87;98570.58;106564;1268;72231;-38
2023/12/02 08:38:12;;;;;;;48.00;27.20;;;;;;;0.84;80.98;98584.81;107315;1254;67616;-42
2023/12/02 08:40:39;;;;;;;49.70;28.50;;;;;;;0.90;80.79;98582.35;107356;1257;71361;-39
2023/12/02 08:43:07;;;;;;;48.00;28.60;;;;;;;0.89;81.03;98584.61;105185;1253;2952670;-38
2023/12/02 08:45:34;;;;;;;49.90;28.90;;;;;;;0.86;80.98;98585.83;107463;1257;59334;-38
2023/12/02 08:48:02;;;;;;;48.00;27.20;;;;;;;0.81;80.89;98598.79;107608;1254;59799;-38
2023/12/02 08:50:30;;;;;;;47.80;28.10;;;;;;;0.84;80.73;98598.39;107710;1254;67562;-39
2023/12/02 08:52:57;;;;;;;47.10;27.90;;;;;;;0.84;81.05;98599.48;107459;1254;72500;-38
2023/12/02 08:55:25;;;;;;;48.40;27.50;;;;;;;0.82;81.32;98604.41;107459;1257;59874;-38
2023/12/02 08:57:53;;;;;;;48.40;26.20;;;;;;;0.81;81.45;98614.97;107462;1252;59297;-39
2023/12/02 09:00:21;;;;;;;45.10;26.40;;;;;;;0.87;81.25;98613.33;107319;1254;71827;-38
2023/12/02 09:02:48;;;;;;;46.10;26.40;;;;;;;0.95;80.94;98602.85;107393;1254;66609;-38
2023/12/02 09:05:16;;;;;;;46.20;26.30;;;;;;;0.93;80.70;98591.38;107402;1257;72496;-39
2023/12/02 09:07:43;;;;;;;46.70;27.10;;;;;;;0.81;80.68;98580.80;107476;1254;59524;-38
2023/12/02 09:10:11;;;;;;;45.20;25.30;;;;;;;0.83;80.72;98591.19;107388;1254;60018;-39
2023/12/02 09:12:38;;;;;;;43.10;26.20;;;;;;;0.79;80.64;98568.50;107390;1252;72993;-38
2023/12/02 09:15:08;;;;;;;41.10;25.50;;;;;;;0.89;80.51;98578.48;107363;1253;66642;-39
2023/12/02 09:18:07;;;;;;;47.40;27.00;;;;;;;0.84;80.82;98580.50;107464;1254;71682;-38
2023/12/02 09:20:35;;;;;;;43.30;25.00;;;;;;;0.80;81.04;98567.34;107350;1254;59762;-39
2023/12/02 09:23:03;;;;;;;37.40;21.70;;;;;;;0.82;80.87;98558.52;107375;1254;59714;-39
2023/12/02 09:25:31;;;;;;;39.60;21.80;;;;;;;0.84;80.37;98548.70;107457;1252;73141;-39
2023/12/02 09:28:05;;;;;;;35.50;21.50;;;;;;;0.77;80.53;98548.44;107362;1254;67604;-39
2023/12/02 09:30:33;;;;;;;40.10;21.40;;;;;;;0.69;80.86;98553.65;107418;1254;72680;-38
2023/12/02 09:33:01;;;;;;;35.30;20.20;;;;;;;0.64;80.91;98554.57;107535;1254;60841;-39
2023/12/02 09:35:29;;;;;;;36.50;20.90;;;;;;;0.66;80.97;98557.65;107511;1252;60122;-39
2023/12/02 09:38:02;;;;;;;33.90;21.50;;;;;;;0.64;80.94;98553.44;107442;1252;72477;-39
2023/12/02 09:40:49;;;;;;;35.70;21.00;;;;;;;0.59;81.29;98551.77;107413;1253;67763;-39
2023/12/02 09:43:32;;;;;;;35.90;21.10;;;;;;;0.56;81.52;98549.95;107386;1253;72667;-39
2023/12/02 09:46:03;;;;;;;33.50;21.10;;;;;;;0.58;81.11;98551.33;107415;1254;59756;-39
2023/12/02 09:48:34;;;;;;;39.00;22.50;;;;;;;0.57;81.25;98548.76;103823;1254;1016193;-39
2023/12/02 09:51:17;;;;;;;35.00;21.30;;;;;;;0.51;81.37;98558.05;107390;1254;73050;-39
2023/12/02 09:53:47;;;;;;;33.30;21.20;;;;;;;0.49;81.75;98558.33;107369;1253;66297;-39
2023/12/02 09:56:19;;;;;;;35.10;21.70;;;;;;;0.56;81.81;98537.98;107378;1253;71442;-39
2023/12/02 09:58:49;;;;;;;33.30;21.10;;;;;;;0.55;81.67;98529.39;107366;1254;59381;-39
2023/12/02 10:01:21;;;;;;;36.10;22.30;;;;;;;0.44;81.88;98500.73;107488;1254;59659;-39
2023/12/02 10:04:06;;;;;;;30.80;19.20;;;;;;;0.45;82.02;98517.69;107435;1254;72153;-39
2023/12/02 10:06:47;;;;;;;32.20;20.00;;;;;;;0.52;82.00;98532.79;107669;1254;67151;-39
2023/12/02 10:09:22;;;;;;;32.30;21.00;;;;;;;0.55;81.83;98546.15;107459;1254;72660;-39
2023/12/02 10:12:17;;;;;;;34.30;21.50;;;;;;;0.50;81.99;98537.98;107419;1254;59651;-39
2023/12/02 10:14:45;;;;;;;29.50;18.60;;;;;;;0.48;82.11;98526.11;107418;1252;60118;-40
2023/12/02 10:17:13;;;;;;;26.50;17.20;;;;;;;0.52;81.91;98524.46;107344;1254;73063;-39
2023/12/02 10:19:51;;;;;;;27.80;16.50;;;;;;;0.58;81.64;98525.11;107271;1254;68099;-39
2023/12/02 10:22:19;;;;;;;27.30;16.80;;;;;;;0.55;81.54;98527.36;107431;1254;73093;-38
2023/12/02 10:25:03;;;;;;;25.50;15.90;;;;;;;0.54;81.53;98523.79;107329;1254;59625;-39
2023/12/02 10:27:32;;;;;;;22.30;15.50;;;;;;;0.54;81.03;98522.35;107568;1254;60504;-38
2023/12/02 10:30:10;;;;;;;21.80;14.90;;;;;;;0.56;80.84;98519.11;107572;1255;73054;-39
2023/12/02 10:32:41;;;;;;;24.00;16.20;;;;;;;0.50;80.81;98509.38;107586;1254;66780;-38
2023/12/02 10:35:19;;;;;;;27.40;16.60;;;;;;;0.44;81.11;98505.77;107432;1254;72654;-38
2023/12/02 10:38:09;;;;;;;19.10;13.50;;;;;;;0.40;81.02;98489.59;107421;1259;60170;-38
2023/12/02 10:40:37;;;;;;;23.20;15.00;;;;;;;0.42;80.74;98503.93;107456;1253;59618;-39
2023/12/02 10:43:12;;;;;;;22.40;14.50;;;;;;;0.35;80.98;98530.45;107445;1252;72908;-38
2023/12/02 10:45:40;;;;;;;22.40;13.90;;;;;;;0.32;81.22;98543.41;107566;1254;66640;-39
2023/12/02 10:48:10;;;;;;;20.80;13.90;;;;;;;0.37;81.32;98546.45;107457;1254;71380;-38
2023/12/02 10:50:39;;;;;;;21.70;15.10;;;;;;;0.44;81.14;98538.84;107507;1253;59668;-39
2023/12/02 10:53:06;;;;;;;23.90;16.10;;;;;;;0.43;81.38;98533.41;107449;1254;60011;-39
2023/12/02 10:55:36;;;;;;;22.90;16.10;;;;;;;0.42;81.95;98533.89;107361;1254;73031;-39
2023/12/02 10:58:04;;;;;;;23.40;15.40;;;;;;;0.43;81.89;98536.20;107445;1254;68119;-38
2023/12/02 11:00:36;;;;;;;22.50;15.00;;;;;;;0.52;81.76;98517.33;107524;1254;72743;-38
2023/12/02 11:03:18;;;;;;;22.50;14.50;;;;;;;0.50;81.25;98506.94;107600;1257;59960;-39
2023/12/02 11:06:00;;;;;;;20.40;14.80;;;;;;;0.41;81.33;98506.50;107425;1256;60101;-39
2023/12/02 11:08:46;;;;;;;20.50;13.10;;;;;;;0.38;81.57;98515.94;107418;1254;72231;-39
2023/12/02 11:11:20;;;;;;;21.30;14.00;;;;;;;0.43;81.51;98511.61;107569;1254;67943;-39
2023/12/02 11:13:48;;;;;;;21.60;14.50;;;;;;;0.43;81.73;98502.17;107452;1258;72708;-38
2023/12/02 11:16:42;;;;;;;21.60;14.50;;;;;;;0.40;81.66;98509.33;106814;1253;1002978;-38
2023/12/02 11:19:33;;;;;;;20.60;13.30;;;;;;;0.37;81.49;98510.33;107336;1252;60026;-39
2023/12/02 11:22:05;;;;;;;19.40;13.30;;;;;;;0.40;81.28;98511.98;107453;1254;71795;-38
2023/12/02 11:24:39;;;;;;;23.20;15.60;;;;;;;0.35;81.71;98500.29;107566;1252;66578;-38
2023/12/02 11:27:10;;;;;;;22.70;15.20;;;;;;;0.31;81.85;98514.05;107439;1254;71358;-38
2023/12/02 11:30:14;;;;;;;21.30;14.70;;;;;;;0.33;81.62;98510.63;107446;1254;59749;-38